Time;durP1;ratioP1;P1;durP2;ratioP2;P2;SDS_P1;SDS_P2;PMS_P1;PMS_P2;Temp;Humidity;BMP_temperature;BMP_pressure;BME280_temperature;BME280_humidity;BME280_pressure;Samples;Min_cycle;Max_cycle;Signal;HPM_P1;HPM_P2
2023/11/06 00:00:34;;;;;;;2.22;0.50;;;;;;;7.27;100.00;91728.09;2115749;28;20034;-82
2023/11/06 00:01:35;;;;;;;4.70;0.93;;;;;;;7.32;100.00;91729.47;2112705;28;20028;-78
2023/11/06 00:02:36;;;;;;;5.70;0.80;;;;;;;7.29;100.00;91733.00;2091787;28;20520;-80
2023/11/06 00:03:57;;;;;;;0.95;0.57;;;;;;;7.44;100.00;91727.97;2092476;28;20404;-80
2023/11/06 00:04:58;;;;;;;4.47;0.57;;;;;;;7.41;100.00;91736.78;2106198;28;20024;-83
2023/11/06 00:05:59;;;;;;;4.47;0.60;;;;;;;7.52;100.00;91740.59;2109865;28;20770;-81
2023/11/06 00:07:00;;;;;;;1.63;0.47;;;;;;;7.54;100.00;91738.25;2108912;28;20016;-81
2023/11/06 00:08:01;;;;;;;3.95;0.52;;;;;;;7.52;100.00;91737.94;2107376;28;20016;-79
2023/11/06 00:09:05;;;;;;;1.63;0.50;;;;;;;7.45;100.00;91748.81;2116399;27;20506;-79
2023/11/06 00:10:11;;;;;;;2.38;0.40;;;;;;;7.45;100.00;91740.09;2121214;27;20379;-78
2023/11/06 00:11:13;;;;;;;1.60;0.50;;;;;;;7.47;100.00;91751.06;2115192;28;20032;-82
2023/11/06 00:12:14;;;;;;;3.15;0.60;;;;;;;7.38;100.00;91743.00;2106773;28;20030;-83
2023/11/06 00:13:15;;;;;;;1.30;0.45;;;;;;;7.56;100.00;91748.47;2115120;28;20069;-84
2023/11/06 00:14:16;;;;;;;1.65;0.40;;;;;;;7.58;100.00;91754.09;2114919;28;20024;-81
2023/11/06 00:15:17;;;;;;;4.35;0.70;;;;;;;7.56;100.00;91757.19;2115279;28;20026;-77
2023/11/06 00:16:18;;;;;;;1.13;0.47;;;;;;;7.46;100.00;91749.53;2115163;28;20107;-82
2023/11/06 00:17:19;;;;;;;1.75;0.63;;;;;;;7.40;100.00;91757.31;2112511;28;20475;-82
2023/11/06 00:18:20;;;;;;;1.33;0.50;;;;;;;7.37;100.00;91752.13;2106766;28;20062;-82
2023/11/06 00:19:21;;;;;;;0.65;0.35;;;;;;;7.35;100.00;91755.22;2109261;28;20028;-78
2023/11/06 00:20:22;;;;;;;2.30;0.47;;;;;;;7.25;100.00;91748.31;2115669;28;20027;-80
2023/11/06 00:21:23;;;;;;;9.25;0.80;;;;;;;7.22;100.00;91746.50;2115168;28;20536;-78
2023/11/06 00:22:24;;;;;;;1.27;0.30;;;;;;;7.30;100.00;91758.41;2115088;28;20491;-80
2023/11/06 00:23:25;;;;;;;2.30;0.50;;;;;;;7.27;100.00;91759.25;2121959;27;20019;-82
2023/11/06 00:24:38;;;;;;;1.02;0.43;;;;;;;7.20;100.00;91754.16;2119792;27;20468;-80
2023/11/06 00:25:38;;;;;;;1.90;0.40;;;;;;;7.18;100.00;91745.88;2107276;28;20024;-84
2023/11/06 00:26:39;;;;;;;0.65;0.38;;;;;;;7.18;100.00;91754.59;2108055;28;20858;-79
2023/11/06 00:27:41;;;;;;;1.98;0.45;;;;;;;7.13;100.00;91765.03;2111695;28;20408;-82
2023/11/06 00:28:42;;;;;;;1.77;0.40;;;;;;;7.41;100.00;91768.69;2098570;28;20031;-78
2023/11/06 00:29:43;;;;;;;1.15;0.50;;;;;;;7.24;100.00;91768.06;2098317;28;20028;-80
2023/11/06 00:30:44;;;;;;;3.38;0.40;;;;;;;7.27;100.00;91767.22;2115107;28;20027;-82
2023/11/06 00:31:45;;;;;;;1.17;0.40;;;;;;;7.24;100.00;91776.81;2114608;28;20020;-80
2023/11/06 00:32:46;;;;;;;1.52;0.30;;;;;;;7.19;100.00;91763.31;2106384;28;20052;-79
2023/11/06 00:33:48;;;;;;;3.00;0.77;;;;;;;6.97;100.00;91769.25;2105936;28;20075;-82
2023/11/06 00:34:49;;;;;;;0.47;0.30;;;;;;;7.13;100.00;91770.34;2104469;28;20024;-80
2023/11/06 00:35:50;;;;;;;0.93;0.40;;;;;;;7.13;100.00;91765.75;2102692;28;20027;-78
2023/11/06 00:36:51;;;;;;;2.65;0.45;;;;;;;7.04;100.00;91774.38;2106488;28;20078;-79
2023/11/06 00:37:52;;;;;;;2.15;0.40;;;;;;;7.09;100.00;91782.97;2106431;28;20020;-81
2023/11/06 00:38:53;;;;;;;0.70;0.30;;;;;;;7.01;100.00;91775.22;2115160;28;20495;-81
2023/11/06 00:39:54;;;;;;;2.88;0.40;;;;;;;7.09;100.00;91770.44;2117732;27;20091;-79
2023/11/06 00:40:55;;;;;;;0.98;0.50;;;;;;;6.98;100.00;91777.97;2106477;28;20492;-83
2023/11/06 00:41:56;;;;;;;1.08;0.40;;;;;;;7.02;100.00;91779.38;2104905;28;20069;-79
2023/11/06 00:42:57;;;;;;;1.73;0.22;;;;;;;7.02;100.00;91781.28;2106904;28;20028;-81
2023/11/06 00:43:58;;;;;;;0.68;0.30;;;;;;;6.92;100.00;91763.75;2106968;28;20019;-79
2023/11/06 00:45:01;;;;;;;0.40;0.30;;;;;;;6.77;100.00;91780.09;2106376;28;20035;-80
2023/11/06 00:46:03;;;;;;;1.27;0.40;;;;;;;6.82;100.00;91776.91;2120888;27;20106;-78
2023/11/06 00:47:05;;;;;;;1.73;0.50;;;;;;;6.98;100.00;91783.28;2123264;27;20019;-77
2023/11/06 00:48:06;;;;;;;1.83;0.40;;;;;;;7.00;100.00;91787.03;2114075;27;20427;-78
2023/11/06 00:49:10;;;;;;;1.25;0.25;;;;;;;6.92;100.00;91779.69;2107124;28;20043;-77
2023/11/06 00:50:11;;;;;;;0.88;0.40;;;;;;;6.91;100.00;91784.25;2114914;28;20023;-80
2023/11/06 00:51:12;;;;;;;1.25;0.50;;;;;;;6.94;100.00;91786.06;2105561;28;20362;-83
2023/11/06 00:52:13;;;;;;;0.60;0.40;;;;;;;7.04;100.00;91792.22;2114878;28;20467;-80
2023/11/06 00:53:14;;;;;;;0.88;0.32;;;;;;;7.00;100.00;91779.06;2106264;28;20016;-79
2023/11/06 00:54:15;;;;;;;4.05;0.55;;;;;;;6.91;100.00;91776.28;2116595;27;20023;-79
2023/11/06 00:55:16;;;;;;;1.05;0.45;;;;;;;6.95;100.00;91784.91;2108430;27;20020;-76
2023/11/06 00:56:17;;;;;;;1.50;0.40;;;;;;;6.83;100.00;91793.59;2122379;27;20094;-77
2023/11/06 00:57:18;;;;;;;3.03;0.43;;;;;;;6.88;100.00;91795.72;2100444;28;20028;-83
2023/11/06 00:58:19;;;;;;;2.20;0.50;;;;;;;7.02;100.00;91787.34;2106440;28;20461;-80
2023/11/06 00:59:20;;;;;;;1.15;0.40;;;;;;;7.03;100.00;91782.78;2106286;28;20034;-80
2023/11/06 01:00:21;;;;;;;1.88;0.40;;;;;;;7.11;100.00;91783.28;2099979;27;20138;-81
2023/11/06 01:01:22;;;;;;;0.88;0.40;;;;;;;7.03;100.00;91778.22;2120196;27;20491;-78
2023/11/06 01:02:24;;;;;;;1.45;0.40;;;;;;;6.93;100.00;91783.81;2111366;28;20030;-82
2023/11/06 01:03:25;;;;;;;2.53;0.50;;;;;;;6.88;100.00;91784.34;2097210;28;20021;-79
2023/11/06 01:04:26;;;;;;;3.35;0.60;;;;;;;6.86;100.00;91789.38;2097493;28;20102;-83
2023/11/06 01:05:35;;;;;;;2.88;0.45;;;;;;;6.90;100.00;91779.38;2103397;28;20028;-78
2023/11/06 01:06:36;;;;;;;2.53;0.63;;;;;;;6.85;100.00;91777.22;2110307;27;20031;-80
2023/11/06 01:07:37;;;;;;;3.53;0.55;;;;;;;6.81;100.00;91788.72;2123178;27;20619;-80
2023/11/06 01:08:38;;;;;;;2.50;0.55;;;;;;;6.76;100.00;91799.09;2106896;28;20039;-81
2023/11/06 01:09:39;;;;;;;6.22;0.77;;;;;;;6.94;100.00;91783.41;2106886;28;20039;-81
2023/11/06 01:10:40;;;;;;;5.13;0.60;;;;;;;6.85;100.00;91783.31;2106118;28;20078;-79
2023/11/06 01:11:46;;;;;;;4.15;0.70;;;;;;;6.92;100.00;91793.72;2097965;28;20024;-77
2023/11/06 01:12:47;;;;;;;5.90;0.60;;;;;;;6.94;100.00;91790.66;2106035;27;20031;-81
2023/11/06 01:13:49;;;;;;;3.25;0.50;;;;;;;7.03;100.00;91786.19;2114546;28;20387;-81
2023/11/06 01:14:50;;;;;;;1.48;0.47;;;;;;;6.98;100.00;91797.34;2123285;27;20034;-81
2023/11/06 01:15:51;;;;;;;3.38;0.63;;;;;;;7.10;100.00;91800.41;2124018;27;20470;-83
2023/11/06 01:16:53;;;;;;;2.90;0.60;;;;;;;7.02;100.00;91787.34;2123824;27;20467;-77
2023/11/06 01:17:54;;;;;;;4.53;0.90;;;;;;;7.15;100.00;91797.22;2123139;27;20019;-80
2023/11/06 01:18:55;;;;;;;9.55;0.80;;;;;;;7.09;100.00;91790.94;2123196;27;20027;-81
2023/11/06 01:19:55;;;;;;;3.45;0.75;;;;;;;7.04;100.00;91786.91;2131711;27;20046;-82
2023/11/06 01:20:56;;;;;;;2.83;0.68;;;;;;;7.08;100.00;91787.56;2131880;27;20459;-80
2023/11/06 01:21:57;;;;;;;1.95;0.70;;;;;;;7.18;100.00;91791.78;2131705;27;20019;-79
2023/11/06 01:22:58;;;;;;;1.35;0.50;;;;;;;7.43;100.00;91799.00;2123131;27;20031;-77
2023/11/06 01:23:59;;;;;;;2.28;0.70;;;;;;;7.29;100.00;91783.50;2114635;28;20054;-80
2023/11/06 01:25:00;;;;;;;8.55;0.77;;;;;;;7.22;100.00;91791.69;2110880;27;20054;-78
2023/11/06 01:26:02;;;;;;;1.55;0.60;;;;;;;7.21;100.00;91784.91;2106858;28;20020;-82
2023/11/06 01:27:04;;;;;;;2.75;0.70;;;;;;;7.17;100.00;91782.34;2109541;28;20098;-79
2023/11/06 01:28:06;;;;;;;5.90;0.60;;;;;;;7.23;100.00;91777.22;2116668;27;20404;-77
2023/11/06 01:29:07;;;;;;;2.83;0.60;;;;;;;7.14;100.00;91785.84;2115314;28;20464;-77
2023/11/06 01:30:11;;;;;;;7.57;0.88;;;;;;;7.29;100.00;91783.50;2097715;28;20028;-79
2023/11/06 01:31:12;;;;;;;2.53;0.70;;;;;;;7.22;100.00;91789.03;2105036;27;20506;-82
2023/11/06 01:32:13;;;;;;;10.85;1.13;;;;;;;7.25;100.00;91794.25;2123161;27;20028;-82
2023/11/06 01:33:15;;;;;;;5.00;0.80;;;;;;;7.34;100.00;91790.94;2112848;27;20487;-78
2023/11/06 01:34:16;;;;;;;4.82;1.00;;;;;;;7.38;100.00;91799.56;2115504;28;20479;-81
2023/11/06 01:35:19;;;;;;;4.97;0.80;;;;;;;7.47;100.00;91790.94;2108560;28;20055;-79
2023/11/06 01:36:20;;;;;;;4.55;0.57;;;;;;;7.41;100.00;91801.34;2113666;28;20023;-80
2023/11/06 01:37:21;;;;;;;4.90;0.75;;;;;;;7.28;100.00;91796.03;2111120;28;20024;-77
2023/11/06 01:38:22;;;;;;;3.10;0.70;;;;;;;7.30;100.00;91790.31;2106396;28;20027;-80
2023/11/06 01:39:23;;;;;;;6.85;0.80;;;;;;;7.50;100.00;91793.44;2097727;28;20046;-81
2023/11/06 01:40:24;;;;;;;2.75;0.57;;;;;;;7.52;100.00;91793.78;2104183;28;20020;-79
2023/11/06 01:41:25;;;;;;;3.15;0.70;;;;;;;7.44;100.00;91795.19;2114538;27;20028;-78
2023/11/06 01:42:26;;;;;;;6.35;0.70;;;;;;;7.41;100.00;91795.28;2122995;27;20023;-80
2023/11/06 01:43:27;;;;;;;4.95;0.70;;;;;;;7.44;100.00;91795.19;2122909;27;20102;-81
2023/11/06 01:44:28;;;;;;;6.85;1.08;;;;;;;7.50;100.00;91801.44;2122992;27;20525;-82
2023/11/06 01:45:29;;;;;;;4.10;0.77;;;;;;;7.43;100.00;91800.94;2115550;27;20031;-79
2023/11/06 01:46:31;;;;;;;7.35;1.00;;;;;;;7.39;100.00;91797.63;2097682;28;20056;-80
2023/11/06 01:47:33;;;;;;;6.53;1.00;;;;;;;7.44;100.00;91799.75;2121207;27;20031;-82
2023/11/06 01:48:34;;;;;;;1.75;0.60;;;;;;;7.39;100.00;91806.34;2123554;27;20043;-80
2023/11/06 01:49:37;;;;;;;8.32;1.00;;;;;;;7.27;100.00;91802.53;2123648;27;20420;-78
2023/11/06 01:50:39;;;;;;;3.97;0.88;;;;;;;7.42;100.00;91810.06;2118637;27;20411;-80
2023/11/06 01:51:40;;;;;;;4.78;0.90;;;;;;;7.29;100.00;91805.50;2106098;28;20035;-81
2023/11/06 01:52:43;;;;;;;2.15;0.82;;;;;;;7.32;100.00;91809.22;2114296;28;20019;-82
2023/11/06 01:53:43;;;;;;;3.30;0.70;;;;;;;7.39;100.00;91809.00;2106210;28;20020;-81
2023/11/06 01:54:45;;;;;;;4.75;0.80;;;;;;;7.46;100.00;91800.81;2110388;28;20130;-79
2023/11/06 01:55:47;;;;;;;7.18;0.90;;;;;;;7.48;100.00;91811.03;2106091;28;20115;-80
2023/11/06 01:56:49;;;;;;;5.97;0.85;;;;;;;7.43;100.00;91804.31;2106012;28;20086;-83
2023/11/06 01:57:50;;;;;;;1.55;0.70;;;;;;;7.45;100.00;91809.94;2101785;28;20036;-79
2023/11/06 01:58:52;;;;;;;5.25;0.80;;;;;;;7.41;100.00;91805.91;2084408;28;20509;-77
2023/11/06 01:59:55;;;;;;;3.10;0.85;;;;;;;7.34;100.00;91811.47;2089600;28;20021;-80
2023/11/06 02:00:55;;;;;;;8.75;0.88;;;;;;;7.32;100.00;91820.59;2097803;28;20074;-76
2023/11/06 02:02:04;;;;;;;7.32;1.13;;;;;;;7.35;100.00;91824.31;2120500;27;20023;-82
2023/11/06 02:03:08;;;;;;;5.53;1.33;;;;;;;7.30;100.00;91822.19;2113087;28;20094;-82
2023/11/06 02:04:12;;;;;;;3.85;0.73;;;;;;;7.47;100.00;91820.91;2106921;28;20028;-80
2023/11/06 02:05:13;;;;;;;5.53;0.75;;;;;;;7.42;100.00;91821.44;2097900;28;20028;-82
2023/11/06 02:06:14;;;;;;;7.05;1.13;;;;;;;7.39;100.00;91816.97;2097845;28;20503;-81
2023/11/06 02:07:16;;;;;;;2.88;0.90;;;;;;;7.47;100.00;91826.22;2109227;28;20050;-80
2023/11/06 02:08:17;;;;;;;3.60;0.65;;;;;;;7.49;100.00;91826.53;2116849;27;20060;-80
2023/11/06 02:09:18;;;;;;;4.38;0.77;;;;;;;7.55;100.00;91818.75;2123473;27;20026;-81
2023/11/06 02:10:20;;;;;;;4.60;0.90;;;;;;;7.58;100.00;91823.22;2131349;27;20071;-79
2023/11/06 02:11:21;;;;;;;5.90;0.80;;;;;;;7.48;100.00;91821.66;2122865;27;20034;-80
2023/11/06 02:12:22;;;;;;;4.40;1.05;;;;;;;7.57;100.00;91813.78;2114302;28;20434;-78
2023/11/06 02:13:25;;;;;;;6.70;0.85;;;;;;;7.51;100.00;91828.78;2114245;28;20016;-80
2023/11/06 02:14:26;;;;;;;5.05;1.10;;;;;;;7.43;100.00;91822.94;2114740;28;20107;-78
2023/11/06 02:15:28;;;;;;;3.58;0.80;;;;;;;7.59;100.00;91816.72;2105844;28;20381;-81
2023/11/06 02:16:32;;;;;;;8.88;0.93;;;;;;;7.53;100.00;91819.19;2114347;28;20057;-83
2023/11/06 02:17:33;;;;;;;7.00;0.80;;;;;;;7.51;100.00;91818.88;2122854;27;20023;-80
2023/11/06 02:18:34;;;;;;;4.43;0.85;;;;;;;7.43;100.00;91820.28;2122755;27;20015;-79
2023/11/06 02:19:35;;;;;;;6.05;0.90;;;;;;;7.55;100.00;91818.75;2114376;28;20849;-80
2023/11/06 02:20:37;;;;;;;3.53;0.70;;;;;;;7.48;100.00;91819.00;2110916;28;20027;-81
2023/11/06 02:21:38;;;;;;;5.28;0.90;;;;;;;7.51;100.00;91820.81;2113299;28;20023;-79
2023/11/06 02:24:07;;;;;;;;;;;;;;;6.91;100.00;91823.34;2131177;27;20178;-77
2023/11/06 02:25:08;;;;;;;5.60;0.65;;;;;;;7.04;100.00;91816.13;2122332;27;19915;-82
2023/11/06 02:26:09;;;;;;;6.32;1.08;;;;;;;7.24;100.00;91821.22;2121544;28;20055;-80
2023/11/06 02:27:10;;;;;;;3.58;0.57;;;;;;;7.16;100.00;91828.69;2121540;28;20554;-81
2023/11/06 02:28:11;;;;;;;2.50;0.43;;;;;;;6.99;100.00;91817.41;2118957;28;20099;-81
2023/11/06 02:29:12;;;;;;;4.43;0.70;;;;;;;7.10;100.00;91819.00;2119814;27;20039;-80
2023/11/06 02:30:13;;;;;;;1.63;0.40;;;;;;;7.15;100.00;91816.56;2121622;28;20080;-83
2023/11/06 02:31:14;;;;;;;3.80;0.68;;;;;;;7.28;100.00;91824.53;2115675;28;20051;-81
2023/11/06 02:32:16;;;;;;;2.90;0.52;;;;;;;7.27;100.00;91826.44;2125573;27;20038;-84
2023/11/06 02:33:17;;;;;;;3.85;0.68;;;;;;;7.10;100.00;91821.66;2122503;27;20438;-82
2023/11/06 02:34:18;;;;;;;0.68;0.25;;;;;;;7.05;100.00;91834.31;2116736;27;20016;-80
2023/11/06 02:35:19;;;;;;;1.48;0.45;;;;;;;7.12;100.00;91827.31;2117054;28;20491;-86
2023/11/06 02:36:20;;;;;;;1.92;0.32;;;;;;;7.18;100.00;91830.91;2103940;28;20035;-79
2023/11/06 02:37:21;;;;;;;7.88;1.08;;;;;;;7.13;100.00;91818.16;2100996;28;20024;-86
2023/11/06 02:38:22;;;;;;;4.43;0.50;;;;;;;7.16;100.00;91827.94;2104665;28;20108;-80
2023/11/06 02:39:23;;;;;;;3.78;0.50;;;;;;;7.16;100.00;91828.69;2104766;28;20020;-82
2023/11/06 02:40:24;;;;;;;0.40;0.40;;;;;;;7.06;100.00;91830.47;2113076;28;20016;-80
2023/11/06 02:41:25;;;;;;;4.05;0.60;;;;;;;7.20;100.00;91831.22;2111653;28;20079;-80
2023/11/06 02:42:26;;;;;;;4.32;0.52;;;;;;;7.08;100.00;91827.41;2112184;28;20027;-79
2023/11/06 02:43:27;;;;;;;1.75;0.55;;;;;;;6.94;100.00;91849.81;2113014;28;20038;-79
2023/11/06 02:44:31;;;;;;;1.35;0.50;;;;;;;7.10;100.00;91845.56;2112905;28;20459;-83
2023/11/06 02:45:32;;;;;;;2.25;0.68;;;;;;;6.93;100.00;91840.34;2121561;28;20054;-80
2023/11/06 02:46:33;;;;;;;2.40;0.40;;;;;;;6.92;100.00;91857.47;2113025;28;20023;-83
2023/11/06 02:47:34;;;;;;;2.92;0.50;;;;;;;6.85;100.00;91852.38;2104570;28;20028;-83
2023/11/06 02:48:35;;;;;;;1.50;0.40;;;;;;;6.80;100.00;91848.31;2113055;28;20024;-80
2023/11/06 02:49:36;;;;;;;1.58;0.60;;;;;;;6.79;100.00;91865.41;2108978;28;20062;-79
2023/11/06 02:50:37;;;;;;;1.83;0.57;;;;;;;6.76;100.00;91854.88;2120509;28;20433;-84
2023/11/06 02:51:38;;;;;;;2.30;0.50;;;;;;;6.68;100.00;91864.22;2107959;28;20040;-80
2023/11/06 02:53:22;;;;;;;1.70;0.60;;;;;;;6.54;100.00;91860.78;2112926;28;20472;-82
2023/11/06 02:54:24;;;;;;;2.38;0.43;;;;;;;6.56;100.00;91858.44;2112461;28;20038;-78
2023/11/06 02:55:25;;;;;;;0.65;0.30;;;;;;;6.73;100.00;91856.47;2110576;28;20051;-82
2023/11/06 02:56:32;;;;;;;0.57;0.40;;;;;;;6.71;100.00;91866.75;2112998;28;20392;-82
2023/11/06 02:57:34;;;;;;;1.67;0.47;;;;;;;6.73;100.00;91871.66;2115087;28;20536;-80
2023/11/06 02:58:35;;;;;;;1.05;0.20;;;;;;;6.78;100.00;91868.47;2122143;27;20019;-79
2023/11/06 02:59:36;;;;;;;2.20;0.47;;;;;;;6.64;100.00;91866.22;2117231;28;20024;-79
2023/11/06 03:00:37;;;;;;;1.02;0.40;;;;;;;6.62;100.00;91847.31;2103585;28;20091;-79
2023/11/06 03:01:40;;;;;;;3.80;0.60;;;;;;;6.63;100.00;91867.38;2111647;28;20163;-82
2023/11/06 03:02:41;;;;;;;2.63;0.32;;;;;;;6.55;100.00;91859.63;2120593;28;20727;-80
2023/11/06 03:03:42;;;;;;;1.30;0.30;;;;;;;6.54;100.00;91867.97;2112859;28;20044;-81
2023/11/06 03:04:53;;;;;;;3.63;0.85;;;;;;;6.59;100.00;91874.72;2116514;28;20464;-81
2023/11/06 03:05:54;;;;;;;1.30;0.30;;;;;;;6.72;100.00;91870.94;2118259;28;20035;-83
2023/11/06 03:06:55;;;;;;;1.65;0.30;;;;;;;6.66;100.00;91871.84;2112898;28;20030;-80
2023/11/06 03:07:56;;;;;;;1.27;0.30;;;;;;;6.70;100.00;91872.50;2118520;28;20074;-81
2023/11/06 03:08:57;;;;;;;1.50;0.40;;;;;;;6.67;100.00;91870.69;2116186;28;20016;-85
2023/11/06 03:09:58;;;;;;;1.58;0.50;;;;;;;6.72;100.00;91884.19;2112683;28;20027;-81
2023/11/06 03:10:59;;;;;;;2.28;0.30;;;;;;;6.73;100.00;91877.72;2112869;28;20496;-82
2023/11/06 03:12:02;;;;;;;0.55;0.47;;;;;;;6.73;100.00;91882.28;2118139;28;20092;-80
2023/11/06 03:13:03;;;;;;;2.85;0.40;;;;;;;6.64;100.00;91882.16;2111951;28;20023;-81
2023/11/06 03:14:05;;;;;;;2.65;0.45;;;;;;;6.64;100.00;91876.84;2112635;28;20024;-79
2023/11/06 03:15:07;;;;;;;1.98;1.02;;;;;;;6.48;100.00;91872.31;2104481;28;20021;-79
2023/11/06 03:16:08;;;;;;;1.85;0.40;;;;;;;6.54;100.00;91867.97;2100524;28;20016;-81
2023/11/06 03:17:09;;;;;;;1.17;0.30;;;;;;;6.56;100.00;91879.69;2112822;28;20107;-80
2023/11/06 03:18:10;;;;;;;1.05;0.43;;;;;;;6.61;100.00;91886.38;2112948;28;20024;-80
2023/11/06 03:19:12;;;;;;;1.30;0.40;;;;;;;6.67;100.00;91882.06;2112882;28;20049;-81
2023/11/06 03:20:12;;;;;;;1.98;0.30;;;;;;;6.69;100.00;91897.56;2112844;28;20020;-81
2023/11/06 03:21:13;;;;;;;3.60;0.40;;;;;;;6.52;100.00;91887.00;2111295;28;20020;-82
2023/11/06 03:22:14;;;;;;;2.78;0.60;;;;;;;6.74;100.00;91889.81;2105186;28;20049;-80
2023/11/06 03:23:15;;;;;;;1.27;0.50;;;;;;;6.68;100.00;91888.88;2118915;27;20375;-81
2023/11/06 03:24:16;;;;;;;2.40;0.50;;;;;;;6.62;100.00;91887.88;2121383;27;20024;-80
2023/11/06 03:25:25;;;;;;;1.20;0.52;;;;;;;6.72;100.00;91888.78;2118277;28;20020;-83
2023/11/06 03:26:26;;;;;;;2.28;0.50;;;;;;;6.60;100.00;91890.22;2118524;28;20027;-82
2023/11/06 03:27:27;;;;;;;2.97;0.80;;;;;;;6.59;100.00;91895.94;2118165;28;20024;-77
2023/11/06 03:28:29;;;;;;;2.80;1.17;;;;;;;6.59;100.00;91895.94;2108611;28;20166;-78
2023/11/06 03:29:29;;;;;;;0.82;0.60;;;;;;;6.57;100.00;91902.41;2112741;28;20094;-79
2023/11/06 03:30:30;;;;;;;2.83;0.50;;;;;;;6.49;100.00;91895.78;2110684;28;20088;-81
2023/11/06 03:31:32;;;;;;;0.50;0.50;;;;;;;6.52;100.00;91902.91;2100919;28;20434;-79
2023/11/06 03:32:33;;;;;;;1.77;0.60;;;;;;;6.42;100.00;91911.91;2109571;28;20081;-81
2023/11/06 03:33:34;;;;;;;2.00;0.40;;;;;;;6.42;100.00;91917.22;2108755;28;20011;-80
2023/11/06 03:34:35;;;;;;;1.42;0.40;;;;;;;6.58;100.00;91916.41;2113339;28;20023;-78
2023/11/06 03:35:36;;;;;;;0.93;0.45;;;;;;;6.55;100.00;91917.28;2097553;28;20119;-80
2023/11/06 03:36:41;;;;;;;2.92;0.50;;;;;;;6.57;100.00;91914.94;2094680;28;20485;-81
2023/11/06 03:37:43;;;;;;;1.30;0.40;;;;;;;6.64;100.00;91919.31;2098457;28;20079;-80
2023/11/06 03:38:44;;;;;;;1.02;0.40;;;;;;;6.65;100.00;91920.81;2107048;28;20034;-79
2023/11/06 03:39:45;;;;;;;1.30;0.30;;;;;;;6.59;100.00;91914.53;2112034;28;20027;-80
2023/11/06 03:40:46;;;;;;;2.05;0.50;;;;;;;6.56;100.00;91916.09;2110098;28;20020;-79
2023/11/06 03:41:47;;;;;;;0.73;0.45;;;;;;;6.52;100.00;91918.84;2116066;28;20050;-81
2023/11/06 03:42:48;;;;;;;2.05;0.47;;;;;;;6.39;100.00;91917.31;2106871;28;20056;-81
2023/11/06 03:43:51;;;;;;;1.08;0.35;;;;;;;6.40;100.00;91924.84;2106688;28;20107;-81
2023/11/06 03:44:52;;;;;;;0.57;0.35;;;;;;;6.34;100.00;91918.56;2098492;28;20036;-80
2023/11/06 03:46:02;;;;;;;2.88;0.30;;;;;;;6.38;100.00;91921.88;2098407;28;20047;-80
2023/11/06 03:47:04;;;;;;;1.75;0.30;;;;;;;6.48;100.00;91928.81;2110335;28;20376;-84
2023/11/06 03:48:05;;;;;;;3.20;0.50;;;;;;;6.38;100.00;91921.13;2115512;28;20106;-79
2023/11/06 03:49:09;;;;;;;3.33;0.65;;;;;;;6.26;100.00;91933.91;2115161;28;20383;-81
2023/11/06 03:50:10;;;;;;;0.82;0.40;;;;;;;6.33;100.00;91932.25;2115728;27;20380;-82
2023/11/06 03:51:11;;;;;;;0.85;0.30;;;;;;;6.45;100.00;91915.63;2106961;28;20024;-79
2023/11/06 03:52:12;;;;;;;1.27;0.40;;;;;;;6.40;100.00;91929.41;2106812;28;20023;-79
2023/11/06 03:53:13;;;;;;;0.85;0.35;;;;;;;6.39;100.00;91933.97;2115740;28;20019;-78
2023/11/06 03:54:14;;;;;;;1.13;0.43;;;;;;;6.51;100.00;91919.28;2099144;28;20023;-78
2023/11/06 03:55:16;;;;;;;2.85;0.50;;;;;;;6.42;100.00;91924.44;2097314;28;20098;-84
2023/11/06 03:56:17;;;;;;;1.23;0.30;;;;;;;6.57;100.00;91928.22;2106877;28;20123;-79
2023/11/06 03:57:18;;;;;;;1.25;0.50;;;;;;;6.43;100.00;91929.31;2112321;28;20073;-81
2023/11/06 03:58:19;;;;;;;1.85;0.50;;;;;;;6.43;100.00;91933.88;2110473;28;20529;-81
2023/11/06 03:59:20;;;;;;;2.58;0.68;;;;;;;6.30;100.00;91944.44;2099567;28;20409;-82
2023/11/06 04:00:21;;;;;;;2.13;0.50;;;;;;;6.24;100.00;91933.59;2098438;28;20035;-79
2023/11/06 04:01:22;;;;;;;2.35;0.40;;;;;;;6.33;100.00;91935.66;2110009;27;20873;-79
2023/11/06 04:02:23;;;;;;;0.40;0.40;;;;;;;6.42;100.00;91935.06;2110232;28;20027;-80
2023/11/06 04:03:24;;;;;;;3.22;0.50;;;;;;;6.40;100.00;91934.72;2091350;28;20056;-81
2023/11/06 04:04:25;;;;;;;2.28;0.50;;;;;;;6.46;100.00;91936.47;2105474;28;20443;-82
2023/11/06 04:05:26;;;;;;;1.92;0.60;;;;;;;6.38;100.00;91943.09;2115144;28;20053;-82
2023/11/06 04:06:28;;;;;;;2.20;0.50;;;;;;;6.38;100.00;91942.38;2109089;28;20098;-81
2023/11/06 04:07:29;;;;;;;1.38;0.40;;;;;;;6.62;100.00;91934.91;2101550;28;20036;-80
2023/11/06 04:08:30;;;;;;;3.30;0.60;;;;;;;6.57;100.00;91939.56;2090089;28;20021;-80
2023/11/06 04:09:32;;;;;;;3.42;0.50;;;;;;;6.54;100.00;91947.63;2093121;28;20071;-81
2023/11/06 04:10:33;;;;;;;8.18;2.03;;;;;;;6.61;100.00;91933.44;2115520;28;20031;-81
2023/11/06 04:11:35;;;;;;;4.53;0.52;;;;;;;6.52;100.00;91940.09;2115229;28;20020;-79
2023/11/06 04:12:37;;;;;;;1.15;0.70;;;;;;;6.57;100.00;91939.56;2106766;28;20024;-81
2023/11/06 04:13:38;;;;;;;1.60;0.85;;;;;;;6.60;100.00;91940.66;2107067;28;20024;-79
2023/11/06 04:14:39;;;;;;;1.60;0.70;;;;;;;6.65;100.00;91940.13;2115495;28;20027;-82
2023/11/06 04:15:40;;;;;;;1.65;0.68;;;;;;;6.54;100.00;91944.97;2115748;28;20031;-83
2023/11/06 04:16:54;;;;;;;2.40;0.70;;;;;;;6.69;100.00;91940.78;2106970;28;20024;-81
2023/11/06 04:17:55;;;;;;;3.58;0.65;;;;;;;6.65;100.00;91950.75;2117107;27;20031;-82
2023/11/06 04:18:56;;;;;;;2.10;0.50;;;;;;;6.57;100.00;91955.50;2115048;28;20019;-82
2023/11/06 04:19:58;;;;;;;7.38;0.63;;;;;;;6.58;100.00;91950.94;2106776;28;20072;-80
2023/11/06 04:21:00;;;;;;;2.83;0.70;;;;;;;6.64;100.00;91951.19;2115206;28;20028;-78
2023/11/06 04:22:01;;;;;;;6.88;0.70;;;;;;;6.65;100.00;91955.31;2124212;27;20040;-83
2023/11/06 04:23:02;;;;;;;1.45;0.50;;;;;;;6.68;100.00;91957.16;2111369;28;20034;-81
2023/11/06 04:24:04;;;;;;;2.15;0.47;;;;;;;6.63;100.00;91955.75;2106083;28;20051;-78
2023/11/06 04:25:06;;;;;;;5.47;0.80;;;;;;;6.76;100.00;91955.78;2108790;28;20028;-81
2023/11/06 04:26:06;;;;;;;2.20;0.73;;;;;;;6.72;100.00;91955.91;2106670;28;20772;-78
2023/11/06 04:27:08;;;;;;;2.35;0.60;;;;;;;6.74;100.00;91958.13;2101902;28;20032;-81
2023/11/06 04:28:09;;;;;;;3.35;0.70;;;;;;;6.60;100.00;91964.56;2098364;28;20085;-80
2023/11/06 04:29:10;;;;;;;4.50;0.88;;;;;;;6.61;100.00;91962.63;2098171;28;20807;-80
2023/11/06 04:30:12;;;;;;;6.28;0.90;;;;;;;6.47;100.00;91951.22;2105514;28;20165;-80
2023/11/06 04:31:13;;;;;;;1.35;0.60;;;;;;;6.53;100.00;91954.84;2104928;28;20031;-78
2023/11/06 04:32:14;;;;;;;2.45;0.70;;;;;;;6.57;100.00;91966.13;2103116;28;20383;-80
2023/11/06 04:33:15;;;;;;;0.55;0.50;;;;;;;6.61;100.00;91965.28;2098156;28;20024;-80
2023/11/06 04:34:16;;;;;;;2.22;0.60;;;;;;;6.61;100.00;91966.03;2114003;28;20571;-83
2023/11/06 04:35:17;;;;;;;5.03;0.60;;;;;;;6.84;100.00;91965.06;2108475;28;20141;-79
2023/11/06 04:36:18;;;;;;;3.22;0.63;;;;;;;6.85;100.00;91969.22;2112283;28;20026;-80
2023/11/06 04:37:21;;;;;;;2.63;0.60;;;;;;;6.77;100.00;91962.59;2108261;28;20052;-79
2023/11/06 04:38:22;;;;;;;1.23;0.50;;;;;;;6.90;100.00;91966.06;2114955;28;20050;-82
2023/11/06 04:39:23;;;;;;;2.45;0.60;;;;;;;6.66;100.00;91959.47;2114804;28;20020;-81
2023/11/06 04:40:25;;;;;;;4.15;1.17;;;;;;;6.66;100.00;91965.53;2114710;28;20031;-83
2023/11/06 04:41:26;;;;;;;4.97;0.80;;;;;;;6.69;100.00;91962.03;2115523;28;20143;-80
2023/11/06 04:42:27;;;;;;;1.73;0.55;;;;;;;6.80;100.00;91973.13;2115313;28;20476;-80
2023/11/06 04:43:28;;;;;;;1.58;0.70;;;;;;;6.71;100.00;91965.00;2114524;28;20495;-80
2023/11/06 04:44:29;;;;;;;3.45;0.82;;;;;;;6.64;100.00;91959.16;2114584;28;20057;-82
2023/11/06 04:45:30;;;;;;;1.13;0.57;;;;;;;6.59;100.00;91964.97;2114808;28;20055;-77
2023/11/06 04:46:31;;;;;;;2.42;0.50;;;;;;;6.45;100.00;91971.38;2114297;28;20421;-81
2023/11/06 04:47:32;;;;;;;1.65;0.50;;;;;;;6.48;100.00;91967.88;2106013;28;20099;-81
2023/11/06 04:48:33;;;;;;;3.38;0.80;;;;;;;6.53;100.00;91970.03;2106554;28;20035;-81
2023/11/06 04:49:35;;;;;;;5.10;0.60;;;;;;;6.62;100.00;91977.41;2114999;28;20027;-76
2023/11/06 04:50:36;;;;;;;4.95;0.60;;;;;;;6.60;100.00;91979.72;2114630;28;20509;-81
2023/11/06 04:51:37;;;;;;;0.80;0.50;;;;;;;6.69;100.00;91977.97;2106527;28;20099;-80
2023/11/06 04:52:38;;;;;;;5.15;0.52;;;;;;;6.66;100.00;91981.44;2114803;28;20717;-79